Time;durP1;ratioP1;P1;durP2;ratioP2;P2;SDS_P1;SDS_P2;PMS_P1;PMS_P2;Temp;Humidity;BMP_temperature;BMP_pressure;BME280_temperature;BME280_humidity;BME280_pressure;Samples;Min_cycle;Max_cycle;Signal;HPM_P1;HPM_P2
2022/03/21 00:02:16;;;;;;;9.30;7.47;;;12.30;1.00;;;;;;5063861;28;20485;-78
2022/03/21 00:04:44;;;;;;;10.07;7.17;;;12.20;1.00;;;;;;5054546;28;21277;-76
2022/03/21 00:07:12;;;;;;;9.10;7.40;;;12.10;1.00;;;;;;5062125;28;20475;-76
2022/03/21 00:09:41;;;;;;;10.40;7.40;;;12.10;1.00;;;;;;5060516;28;20846;-76
2022/03/21 00:12:10;;;;;;;11.80;8.00;;;12.00;1.00;;;;;;5060603;28;20949;-77
2022/03/21 00:14:40;;;;;;;11.03;6.90;;;12.10;1.00;;;;;;5056203;28;20486;-78
2022/03/21 00:17:09;;;;;;;10.90;6.90;;;12.10;1.00;;;;;;5057902;28;20479;-78
2022/03/21 00:19:39;;;;;;;11.67;7.90;;;12.00;1.00;;;;;;5060945;28;20455;-77
2022/03/21 00:22:07;;;;;;;8.40;6.93;;;12.00;1.00;;;;;;5058037;28;20471;-77
2022/03/21 00:24:35;;;;;;;11.47;7.57;;;12.00;1.00;;;;;;5057902;28;20458;-77
2022/03/21 00:27:05;;;;;;;9.67;7.23;;;11.90;1.00;;;;;;5063933;28;20483;-77
2022/03/21 00:29:33;;;;;;;10.87;7.90;;;11.90;1.00;;;;;;5059956;28;20864;-77
2022/03/21 00:32:05;;;;;;;11.43;8.13;;;11.80;1.00;;;;;;5061380;28;20508;-77
2022/03/21 00:34:34;;;;;;;9.53;6.97;;;11.80;1.00;;;;;;5058646;28;20453;-77
2022/03/21 00:37:04;;;;;;;10.00;7.10;;;11.70;1.00;;;;;;5058678;28;20990;-77
2022/03/21 00:39:33;;;;;;;9.80;8.30;;;11.60;1.00;;;;;;5059408;28;20458;-77
2022/03/21 00:42:04;;;;;;;10.10;7.13;;;11.60;1.00;;;;;;5059476;28;20478;-78
2022/03/21 00:44:33;;;;;;;10.73;7.50;;;11.60;1.00;;;;;;5059840;28;20473;-77
2022/03/21 00:47:01;;;;;;;8.70;6.77;;;11.60;1.00;;;;;;5064367;28;20466;-78
2022/03/21 00:49:29;;;;;;;7.80;6.50;;;11.50;1.00;;;;;;5059587;28;20533;-78
2022/03/21 00:51:57;;;;;;;8.80;6.83;;;11.50;1.00;;;;;;5057244;28;20451;-79
2022/03/21 00:54:27;;;;;;;11.30;8.20;;;11.60;1.00;;;;;;5057893;28;20908;-78
2022/03/21 00:56:55;;;;;;;12.20;7.80;;;11.40;1.00;;;;;;5061710;28;20896;-77
2022/03/21 00:59:23;;;;;;;12.17;7.60;;;11.40;1.00;;;;;;5059114;28;20466;-78
2022/03/21 01:01:51;;;;;;;9.87;6.60;;;11.40;1.00;;;;;;5059973;28;20942;-77
2022/03/21 01:04:19;;;;;;;9.20;6.90;;;11.50;1.00;;;;;;5057861;28;20553;-77
2022/03/21 01:06:48;;;;;;;11.27;7.70;;;11.40;1.00;;;;;;5054900;28;20504;-76
2022/03/21 01:09:17;;;;;;;12.30;7.83;;;11.60;1.00;;;;;;5059702;28;20542;-77
2022/03/21 01:11:46;;;;;;;14.90;8.20;;;11.30;1.00;;;;;;5058280;28;20962;-77
2022/03/21 01:14:15;;;;;;;10.13;7.00;;;11.40;1.00;;;;;;5062449;28;20510;-76
2022/03/21 01:16:43;;;;;;;12.00;8.00;;;11.40;1.00;;;;;;5060182;28;20480;-76
2022/03/21 01:19:12;;;;;;;15.93;7.73;;;11.30;1.00;;;;;;5056620;28;20461;-77
2022/03/21 01:21:40;;;;;;;9.30;6.50;;;11.30;1.00;;;;;;5059457;28;20448;-76
2022/03/21 01:24:08;;;;;;;10.10;7.67;;;11.30;1.00;;;;;;5058408;28;20473;-76
2022/03/21 01:26:36;;;;;;;11.50;8.07;;;11.10;1.00;;;;;;5054867;28;20473;-78
2022/03/21 01:29:05;;;;;;;11.77;8.50;;;11.00;1.00;;;;;;5057676;28;20454;-77
2022/03/21 01:31:34;;;;;;;11.73;7.97;;;11.00;1.00;;;;;;5058889;28;20551;-77
2022/03/21 01:34:02;;;;;;;11.83;7.17;;;11.10;1.00;;;;;;5056345;28;20466;-77
2022/03/21 01:36:30;;;;;;;11.17;7.70;;;11.00;1.00;;;;;;5060277;28;20532;-78
2022/03/21 01:38:58;;;;;;;10.03;7.80;;;11.00;1.00;;;;;;5059839;28;20462;-77
2022/03/21 01:41:26;;;;;;;14.10;8.43;;;11.00;1.00;;;;;;5059600;28;20463;-78
2022/03/21 01:43:59;;;;;;;10.07;7.40;;;11.00;1.00;;;;;;5055915;28;20915;-77
2022/03/21 01:46:29;;;;;;;9.20;7.53;;;10.90;1.00;;;;;;5059021;28;20473;-77
2022/03/21 01:48:58;;;;;;;12.73;8.40;;;11.00;1.00;;;;;;5056212;28;20541;-76
2022/03/21 01:51:27;;;;;;;12.40;8.10;;;11.00;1.00;;;;;;5061147;28;20460;-78
2022/03/21 01:56:43;;;;;;;16.77;9.30;;;10.90;1.00;;;;;;5059379;28;20472;-77
2022/03/21 01:59:11;;;;;;;13.00;7.80;;;10.90;1.00;;;;;;5065599;28;20468;-77
2022/03/21 02:01:42;;;;;;;14.80;8.47;;;10.90;1.00;;;;;;5063086;28;20874;-77
2022/03/21 02:04:11;;;;;;;11.43;8.47;;;10.90;1.00;;;;;;5057090;28;20467;-78
2022/03/21 02:06:39;;;;;;;12.17;8.93;;;10.90;1.00;;;;;;5058601;28;20468;-77
2022/03/21 02:09:08;;;;;;;12.70;8.33;;;10.90;1.00;;;;;;5061278;28;20505;-79
2022/03/21 02:11:36;;;;;;;11.90;8.63;;;10.80;1.00;;;;;;5054746;28;20443;-77
2022/03/21 02:14:06;;;;;;;9.37;7.60;;;10.80;1.00;;;;;;5063038;28;20503;-77
2022/03/21 02:16:35;;;;;;;11.13;7.30;;;10.70;1.00;;;;;;5056714;28;20908;-77
2022/03/21 02:19:09;;;;;;;10.07;7.67;;;10.70;1.00;;;;;;5058279;28;20976;-77
2022/03/21 02:21:48;;;;;;;11.37;7.53;;;10.60;1.00;;;;;;5059349;28;20460;-77
2022/03/21 02:24:25;;;;;;;11.80;7.57;;;10.60;1.00;;;;;;5057658;28;20494;-77
2022/03/21 02:26:56;;;;;;;8.50;6.77;;;10.70;1.00;;;;;;5056853;28;20534;-77
2022/03/21 02:29:27;;;;;;;8.63;6.60;;;10.40;1.00;;;;;;5057840;28;20510;-78
2022/03/21 02:31:56;;;;;;;11.73;7.80;;;10.40;1.00;;;;;;5057750;28;20462;-78
2022/03/21 02:34:26;;;;;;;11.80;6.90;;;10.50;1.00;;;;;;5054845;28;20537;-77
2022/03/21 02:36:59;;;;;;;10.27;6.87;;;10.50;1.00;;;;;;5057194;28;20530;-77
2022/03/21 02:39:28;;;;;;;8.77;6.67;;;10.60;1.00;;;;;;5055927;28;20462;-76
2022/03/21 02:41:58;;;;;;;9.23;5.87;;;10.60;1.00;;;;;;5058769;28;20468;-78
2022/03/21 02:44:33;;;;;;;8.67;6.30;;;10.60;1.00;;;;;;5055100;28;20527;-76
2022/03/21 02:47:01;;;;;;;7.57;6.13;;;10.60;1.00;;;;;;5057557;28;20462;-77
2022/03/21 02:49:30;;;;;;;10.20;7.23;;;10.60;1.00;;;;;;5055397;28;20512;-77
2022/03/21 02:52:00;;;;;;;12.50;7.90;;;10.60;1.00;;;;;;5056611;28;20440;-77
2022/03/21 02:54:29;;;;;;;9.43;7.53;;;10.60;1.00;;;;;;5058095;28;20957;-77
2022/03/21 02:56:59;;;;;;;12.00;8.40;;;10.60;1.00;;;;;;5059391;28;20474;-77
2022/03/21 02:59:27;;;;;;;8.63;6.53;;;10.50;1.00;;;;;;5057111;28;20457;-77
2022/03/21 03:01:56;;;;;;;7.77;6.43;;;10.60;1.00;;;;;;5062110;28;20530;-76
2022/03/21 03:04:24;;;;;;;11.60;6.47;;;10.60;1.00;;;;;;5054654;28;20463;-76
2022/03/21 03:06:53;;;;;;;11.73;6.90;;;10.60;1.00;;;;;;5059330;28;20473;-76
2022/03/21 03:09:22;;;;;;;8.73;6.47;;;10.60;1.00;;;;;;5057147;28;20456;-78
2022/03/21 03:11:50;;;;;;;9.33;6.27;;;10.60;1.00;;;;;;5061709;28;20446;-75
2022/03/21 03:14:19;;;;;;;9.70;6.60;;;10.60;1.00;;;;;;5055071;28;20950;-76
2022/03/21 03:16:48;;;;;;;7.90;6.60;;;10.50;1.00;;;;;;5058305;28;20470;-78
2022/03/21 03:19:16;;;;;;;7.40;5.90;;;10.50;1.00;;;;;;5054341;28;20452;-77
2022/03/21 03:21:47;;;;;;;10.00;7.87;;;10.50;1.00;;;;;;5056932;28;20445;-77
2022/03/21 03:24:15;;;;;;;10.70;7.00;;;10.40;1.00;;;;;;5060378;28;20478;-79
2022/03/21 03:26:44;;;;;;;10.50;8.27;;;10.20;1.00;;;;;;5061133;28;20879;-77
2022/03/21 03:29:14;;;;;;;10.87;8.17;;;10.20;1.00;;;;;;5058750;28;20484;-77
2022/03/21 03:31:44;;;;;;;9.07;6.67;;;10.40;1.00;;;;;;5059565;28;20462;-77
2022/03/21 03:34:13;;;;;;;10.20;6.43;;;10.50;1.00;;;;;;5055169;28;20520;-77
2022/03/21 03:36:41;;;;;;;12.50;8.00;;;10.50;1.00;;;;;;5061329;28;20473;-78
2022/03/21 03:39:09;;;;;;;11.07;8.37;;;10.30;1.00;;;;;;5057872;28;20456;-78
2022/03/21 03:41:37;;;;;;;8.77;6.97;;;10.20;1.00;;;;;;5058954;28;21108;-78
2022/03/21 03:44:06;;;;;;;9.67;7.03;;;10.10;1.00;;;;;;5062707;28;20464;-78
2022/03/21 03:46:34;;;;;;;11.03;7.70;;;10.10;1.00;;;;;;5060101;28;20473;-77
2022/03/21 03:49:04;;;;;;;9.90;7.33;;;10.00;1.00;;;;;;5061830;28;20552;-77
2022/03/21 03:51:32;;;;;;;8.43;6.50;;;10.10;1.00;;;;;;5059135;28;20467;-77
2022/03/21 03:54:00;;;;;;;10.17;7.73;;;10.20;1.00;;;;;;5058976;28;20436;-76
2022/03/21 03:56:28;;;;;;;12.47;7.70;;;10.20;1.00;;;;;;5060749;28;20879;-76
2022/03/21 03:58:56;;;;;;;10.97;7.43;;;10.20;1.00;;;;;;5058028;28;20459;-76
2022/03/21 04:01:24;;;;;;;13.70;8.57;;;10.20;1.00;;;;;;5061026;28;20509;-77
2022/03/21 04:03:53;;;;;;;9.63;7.03;;;10.10;1.00;;;;;;5061776;28;20475;-76
2022/03/21 04:06:25;;;;;;;11.77;7.37;;;10.10;1.00;;;;;;5064916;28;20482;-78
2022/03/21 04:08:54;;;;;;;9.90;6.97;;;10.10;1.00;;;;;;5064126;28;20534;-77
2022/03/21 04:11:22;;;;;;;11.27;8.57;;;10.10;1.00;;;;;;5061103;28;20957;-78
2022/03/21 04:13:53;;;;;;;10.90;7.53;;;10.10;1.00;;;;;;5058505;28;20445;-77
2022/03/21 04:16:21;;;;;;;11.63;7.43;;;10.10;1.00;;;;;;5061512;28;20529;-78
2022/03/21 04:18:49;;;;;;;11.53;7.70;;;10.10;1.00;;;;;;5056401;28;21098;-77
2022/03/21 04:21:28;;;;;;;13.33;7.87;;;9.90;1.00;;;;;;5060603;28;21027;-78
2022/03/21 04:23:58;;;;;;;8.60;6.33;;;9.80;1.00;;;;;;5058083;28;20468;-77
2022/03/21 04:26:26;;;;;;;7.87;6.20;;;9.80;1.00;;;;;;5055936;28;20561;-77
2022/03/21 04:28:56;;;;;;;11.40;8.07;;;9.90;1.00;;;;;;5061798;28;20457;-78
2022/03/21 04:31:24;;;;;;;9.73;7.00;;;9.90;1.00;;;;;;5061244;28;20451;-77
2022/03/21 04:33:53;;;;;;;9.03;6.90;;;9.90;1.00;;;;;;5059902;28;20966;-77
2022/03/21 04:36:21;;;;;;;10.70;6.97;;;9.90;1.00;;;;;;5063780;28;20541;-77
2022/03/21 04:38:51;;;;;;;9.53;6.93;;;9.90;1.00;;;;;;5056691;28;20448;-76
2022/03/21 04:41:19;;;;;;;8.90;6.90;;;10.00;1.00;;;;;;5057912;28;21012;-76
2022/03/21 04:43:47;;;;;;;13.40;6.53;;;10.00;1.00;;;;;;5061003;28;20457;-78
2022/03/21 04:46:15;;;;;;;10.23;6.73;;;10.10;1.00;;;;;;5062633;28;20471;-77
2022/03/21 04:48:43;;;;;;;12.93;7.80;;;10.00;1.00;;;;;;5056721;28;20489;-78
2022/03/21 04:51:11;;;;;;;13.17;7.83;;;10.10;1.00;;;;;;5056521;28;20458;-78
2022/03/21 04:53:40;;;;;;;9.90;7.23;;;10.00;1.00;;;;;;5059314;28;20452;-77
2022/03/21 04:56:09;;;;;;;10.17;7.43;;;9.90;1.00;;;;;;5061930;28;20801;-76
2022/03/21 04:58:37;;;;;;;11.77;7.80;;;10.10;1.00;;;;;;5054978;28;20446;-78
2022/03/21 05:01:06;;;;;;;9.07;7.70;;;10.00;1.00;;;;;;5061017;28;20452;-76
2022/03/21 05:03:35;;;;;;;8.40;6.77;;;10.00;1.00;;;;;;5060241;28;22010;-78
2022/03/21 05:06:03;;;;;;;9.20;6.50;;;9.90;1.00;;;;;;5062793;28;20553;-77
2022/03/21 05:08:31;;;;;;;10.77;6.60;;;9.70;1.00;;;;;;5076647;28;20954;-77
2022/03/21 05:10:59;;;;;;;8.30;6.77;;;9.70;1.00;;;;;;5058669;28;20491;-76
2022/03/21 05:13:29;;;;;;;10.80;7.13;;;9.70;1.00;;;;;;5061508;28;20461;-78
2022/03/21 05:15:57;;;;;;;8.60;6.10;;;9.60;1.00;;;;;;5056018;28;20445;-80
2022/03/21 05:18:27;;;;;;;10.17;7.50;;;9.50;1.00;;;;;;5061552;28;20546;-77
2022/03/21 05:20:55;;;;;;;12.30;7.43;;;9.40;1.00;;;;;;5059106;28;20533;-78
2022/03/21 05:31:41;;;;;;;10.70;7.30;;;9.60;1.00;;;;;;5056180;28;20915;-75
2022/03/21 05:36:55;;;;;;;11.30;8.23;;;9.50;1.00;;;;;;5059524;28;20224;-75
2022/03/21 05:39:24;;;;;;;12.53;8.40;;;9.50;1.00;;;;;;5058574;28;20444;-75
2022/03/21 05:41:52;;;;;;;9.83;7.70;;;9.40;1.00;;;;;;5058981;28;20982;-76
2022/03/21 05:44:24;;;;;;;10.20;8.30;;;9.40;1.00;;;;;;5060497;28;20897;-76
2022/03/21 05:46:52;;;;;;;13.23;8.60;;;9.50;1.00;;;;;;5058254;28;20527;-77
2022/03/21 05:49:19;;;;;;;11.27;8.98;;;9.50;1.00;;;;;;5056695;28;20455;-76
2022/03/21 05:51:47;;;;;;;13.27;9.88;;;9.80;1.00;;;;;;5055336;28;20465;-77
2022/03/21 05:54:15;;;;;;;11.93;8.70;;;9.50;1.00;;;;;;5059107;28;20351;-76
2022/03/21 05:56:44;;;;;;;11.53;7.33;;;9.60;1.00;;;;;;5058708;28;20910;-76
2022/03/21 06:01:59;;;;;;;8.73;6.83;;;9.50;1.00;;;;;;5056708;28;20512;-77
2022/03/21 06:04:28;;;;;;;9.63;8.27;;;9.50;1.00;;;;;;5054938;28;20457;-78
2022/03/21 06:06:56;;;;;;;11.93;7.77;;;9.40;1.00;;;;;;5058996;28;20483;-76
2022/03/21 06:09:24;;;;;;;11.60;7.43;;;9.40;1.00;;;;;;5059977;28;20449;-77
2022/03/21 06:11:52;;;;;;;8.90;6.97;;;9.40;1.00;;;;;;5057469;28;20458;-77
2022/03/21 06:14:20;;;;;;;11.60;8.17;;;9.40;1.00;;;;;;5058644;28;20462;-76
2022/03/21 06:16:49;;;;;;;14.97;9.40;;;9.40;1.00;;;;;;5057049;28;21046;-76
2022/03/21 06:19:19;;;;;;;9.67;8.07;;;9.30;1.00;;;;;;5054018;28;20456;-80
2022/03/21 06:21:47;;;;;;;13.40;8.33;;;9.30;1.00;;;;;;5055303;28;20462;-77
2022/03/21 06:24:15;;;;;;;9.53;7.43;;;9.40;1.00;;;;;;5059041;28;20877;-78
2022/03/21 06:26:44;;;;;;;9.40;7.73;;;9.70;1.00;;;;;;5058883;28;20476;-76
2022/03/21 06:29:13;;;;;;;15.93;8.47;;;9.50;1.00;;;;;;5060365;28;20466;-78
2022/03/21 06:31:41;;;;;;;11.60;7.80;;;9.50;1.00;;;;;;5053602;28;20447;-78
2022/03/21 06:34:09;;;;;;;12.63;9.10;;;9.60;1.00;;;;;;5059391;28;20552;-77
2022/03/21 06:36:39;;;;;;;14.00;8.57;;;9.70;1.00;;;;;;5056826;28;20844;-77
2022/03/21 06:39:07;;;;;;;10.83;8.30;;;9.80;1.00;;;;;;5062914;28;20451;-77
2022/03/21 06:41:35;;;;;;;9.90;7.73;;;9.90;1.00;;;;;;5058109;28;20460;-77
2022/03/21 06:44:03;;;;;;;12.30;9.63;;;10.00;1.00;;;;;;5055252;28;20465;-78
2022/03/21 06:46:32;;;;;;;10.87;8.50;;;10.10;1.00;;;;;;5055864;28;20905;-78
2022/03/21 06:49:00;;;;;;;13.17;8.33;;;10.20;1.00;;;;;;5060595;28;20458;-77
2022/03/21 06:51:28;;;;;;;11.90;9.17;;;10.20;1.00;;;;;;5058977;28;20510;-77
2022/03/21 06:53:58;;;;;;;10.60;8.30;;;10.20;1.00;;;;;;5060389;28;20450;-78
2022/03/21 06:56:26;;;;;;;13.10;9.40;;;10.20;1.00;;;;;;5056127;28;20472;-79
2022/03/21 06:58:54;;;;;;;9.70;6.90;;;10.30;1.00;;;;;;5063436;28;20454;-77
2022/03/21 07:01:22;;;;;;;10.93;8.07;;;10.40;1.00;;;;;;5059510;28;20443;-79
2022/03/21 07:03:51;;;;;;;15.27;8.90;;;10.50;1.00;;;;;;5061962;28;20448;-78
2022/03/21 07:06:19;;;;;;;10.23;7.80;;;10.60;1.00;;;;;;5062449;28;20485;-79
2022/03/21 07:08:51;;;;;;;11.43;9.17;;;10.70;1.00;;;;;;5060944;28;20821;-77
2022/03/21 07:11:21;;;;;;;14.27;9.10;;;10.70;1.00;;;;;;5062743;28;20556;-77
2022/03/21 07:13:49;;;;;;;10.13;8.93;;;10.70;1.00;;;;;;5064547;28;20499;-77
2022/03/21 07:16:18;;;;;;;15.20;10.30;;;10.80;1.00;;;;;;5064186;28;20504;-80
2022/03/21 07:18:47;;;;;;;16.77;10.30;;;10.90;1.00;;;;;;5060898;28;20475;-78
2022/03/21 07:21:16;;;;;;;15.17;9.83;;;11.00;1.00;;;;;;5056139;28;20455;-77
2022/03/21 07:23:45;;;;;;;10.67;9.13;;;11.10;1.00;;;;;;5065386;28;20560;-79
2022/03/21 07:26:13;;;;;;;10.73;9.37;;;11.00;1.00;;;;;;5063321;28;20485;-78
2022/03/21 07:28:43;;;;;;;15.57;10.23;;;11.00;1.00;;;;;;5061382;28;21302;-76
2022/03/21 07:31:31;;;;;;;14.97;10.43;;;11.10;1.00;;;;;;5062195;28;20547;-76
2022/03/21 07:34:00;;;;;;;14.60;10.03;;;11.10;1.00;;;;;;5063637;28;20470;-75
2022/03/21 07:36:29;;;;;;;17.37;8.80;;;11.10;1.00;;;;;;5059398;28;20467;-78
2022/03/21 07:38:58;;;;;;;10.93;8.53;;;11.20;1.00;;;;;;5063859;28;20448;-77
2022/03/21 07:41:27;;;;;;;16.33;9.47;;;11.30;1.00;;;;;;5062381;28;20446;-78
2022/03/21 07:43:58;;;;;;;12.33;9.30;;;11.30;1.00;;;;;;5067589;28;20476;-78
2022/03/21 07:49:13;;;;;;;18.40;9.50;;;11.50;1.00;;;;;;5062655;28;20480;-77
2022/03/21 07:51:43;;;;;;;16.27;8.83;;;11.60;1.00;;;;;;5063606;28;21020;-78
2022/03/21 07:54:12;;;;;;;11.07;7.40;;;11.70;1.00;;;;;;5064742;28;20633;-77
2022/03/21 07:56:42;;;;;;;10.20;7.90;;;11.80;1.00;;;;;;5060302;28;20981;-78
2022/03/21 07:59:11;;;;;;;15.87;10.60;;;11.90;1.00;;;;;;5052982;28;20980;-77
2022/03/21 08:01:45;;;;;;;14.63;9.10;;;12.00;1.00;;;;;;5058994;28;20451;-79
2022/03/21 08:04:14;;;;;;;17.03;9.70;;;12.20;1.00;;;;;;5067553;28;20541;-76
2022/03/21 08:06:43;;;;;;;11.23;8.60;;;12.50;1.00;;;;;;5066540;28;20500;-77
2022/03/21 08:09:11;;;;;;;10.53;7.83;;;12.60;1.00;;;;;;5061742;28;20506;-78
2022/03/21 08:11:39;;;;;;;12.50;9.60;;;12.80;1.00;;;;;;5060679;28;20485;-77
2022/03/21 08:14:08;;;;;;;12.80;10.33;;;12.90;1.00;;;;;;5066838;28;20471;-78
2022/03/21 08:16:38;;;;;;;18.97;9.83;;;13.10;1.00;;;;;;5055549;28;20484;-77
2022/03/21 08:19:06;;;;;;;14.07;9.60;;;13.30;1.00;;;;;;5057838;28;21067;-77
2022/03/21 08:21:35;;;;;;;14.20;10.67;;;13.50;1.00;;;;;;5063826;28;20452;-77
2022/03/21 08:24:04;;;;;;;13.80;10.40;;;13.60;1.00;;;;;;5060376;28;20481;-78
2022/03/21 08:26:35;;;;;;;14.37;10.37;;;13.90;1.00;;;;;;5061617;28;20478;-77
2022/03/21 08:29:04;;;;;;;11.27;8.83;;;14.00;1.00;;;;;;5065588;28;20553;-77
2022/03/21 08:31:32;;;;;;;12.40;9.50;;;14.10;1.00;;;;;;5059106;28;20468;-76
2022/03/21 08:34:04;;;;;;;11.70;9.17;;;14.20;1.00;;;;;;5057990;28;20455;-79
2022/03/21 08:36:32;;;;;;;13.73;9.00;;;14.20;1.00;;;;;;5056463;28;20481;-78
2022/03/21 08:39:01;;;;;;;14.40;8.97;;;14.30;1.00;;;;;;5066999;28;20473;-77
2022/03/21 08:41:30;;;;;;;12.90;8.03;;;14.30;1.00;;;;;;5066846;28;20509;-77
2022/03/21 08:43:58;;;;;;;11.20;8.20;;;14.30;1.00;;;;;;5060560;28;20467;-77
2022/03/21 08:46:26;;;;;;;15.13;8.50;;;14.30;1.00;;;;;;5061551;28;20488;-77
2022/03/21 08:52:01;;;;;;;12.30;9.83;;;14.40;1.00;;;;;;5060199;28;21130;-77
2022/03/21 08:54:29;;;;;;;17.97;10.57;;;14.40;1.00;;;;;;5056555;28;20453;-78
2022/03/21 08:56:57;;;;;;;12.30;9.67;;;14.50;1.00;;;;;;5059227;28;20888;-78
2022/03/21 08:59:26;;;;;;;16.43;9.50;;;14.50;1.00;;;;;;5057499;28;20453;-78
2022/03/21 09:01:54;;;;;;;11.40;9.77;;;14.60;1.00;;;;;;5061464;28;20504;-76
2022/03/21 09:04:22;;;;;;;17.00;9.53;;;14.70;1.00;;;;;;5057268;28;20458;-78
2022/03/21 09:06:51;;;;;;;12.40;8.80;;;14.80;1.00;;;;;;5058639;28;20517;-78
2022/03/21 09:09:20;;;;;;;13.20;9.70;;;14.90;1.00;;;;;;5066308;28;20494;-78
2022/03/21 09:11:55;;;;;;;14.73;9.70;;;15.10;1.00;;;;;;5058462;28;20471;-78
2022/03/21 09:14:23;;;;;;;15.17;10.27;;;15.20;1.00;;;;;;5060004;28;20854;-78
2022/03/21 09:16:52;;;;;;;12.77;9.57;;;15.20;1.00;;;;;;5062821;28;20461;-77
2022/03/21 09:19:22;;;;;;;16.13;11.20;;;15.20;1.00;;;;;;5054447;28;20454;-78
2022/03/21 09:21:51;;;;;;;13.40;9.70;;;15.20;1.00;;;;;;5059399;28;20469;-77
2022/03/21 09:24:21;;;;;;;13.83;10.67;;;15.20;1.00;;;;;;5058236;28;20484;-78
2022/03/21 09:26:49;;;;;;;13.50;9.60;;;15.20;1.00;;;;;;5062519;28;20474;-77
2022/03/21 09:29:18;;;;;;;16.20;10.50;;;15.40;1.00;;;;;;5065594;28;20451;-78
2022/03/21 09:31:48;;;;;;;14.57;9.70;;;15.40;1.00;;;;;;5054550;28;20471;-78
2022/03/21 09:34:18;;;;;;;15.47;10.17;;;15.50;1.00;;;;;;5062752;28;20463;-80
2022/03/21 09:36:47;;;;;;;12.03;9.07;;;15.60;1.00;;;;;;5053264;28;20476;-76
2022/03/21 09:39:15;;;;;;;16.80;10.93;;;15.70;1.00;;;;;;5060649;28;20515;-78
2022/03/21 09:41:47;;;;;;;13.37;9.83;;;15.80;1.00;;;;;;5057642;28;20455;-77
2022/03/21 09:44:15;;;;;;;12.80;10.17;;;15.90;1.90;;;;;;5056629;28;20456;-77
2022/03/21 09:46:45;;;;;;;11.13;9.27;;;16.00;1.50;;;;;;5059186;28;20477;-78
2022/03/21 09:49:16;;;;;;;13.10;8.60;;;16.00;1.00;;;;;;5059655;28;20457;-77
2022/03/21 09:51:45;;;;;;;12.87;9.87;;;16.00;1.10;;;;;;5059662;28;20456;-78
2022/03/21 09:54:14;;;;;;;11.73;9.37;;;16.00;1.70;;;;;;5057688;28;20538;-78
2022/03/21 09:56:42;;;;;;;13.00;10.07;;;16.10;3.40;;;;;;5058164;28;20476;-79
2022/03/21 09:59:12;;;;;;;14.60;10.10;;;16.30;5.20;;;;;;5057825;28;20496;-78
2022/03/21 10:01:43;;;;;;;14.03;8.80;;;16.40;5.00;;;;;;5066699;28;20448;-77
2022/03/21 10:04:12;;;;;;;11.00;7.83;;;16.50;6.60;;;;;;5061060;28;20554;-79
2022/03/21 10:06:41;;;;;;;13.47;8.83;;;16.40;6.50;;;;;;5059685;28;21452;-78
2022/03/21 10:09:12;;;;;;;12.37;8.20;;;16.60;8.30;;;;;;5054723;28;20556;-78
2022/03/21 10:11:41;;;;;;;13.00;9.33;;;16.70;7.90;;;;;;5057543;28;20465;-77
2022/03/21 10:14:25;;;;;;;12.63;8.63;;;16.80;9.20;;;;;;5073110;28;20466;-78
2022/03/21 10:16:55;;;;;;;11.13;8.93;;;16.90;9.20;;;;;;5057610;28;21017;-77
2022/03/21 10:19:24;;;;;;;12.20;9.40;;;17.00;9.80;;;;;;5058842;28;20454;-78
2022/03/21 10:22:07;;;;;;;13.03;8.43;;;17.10;11.20;;;;;;5057454;28;20468;-78
2022/03/21 10:24:37;;;;;;;12.10;8.93;;;17.10;10.60;;;;;;5056871;28;20471;-77
2022/03/21 10:27:06;;;;;;;14.50;8.87;;;17.30;12.20;;;;;;5057441;28;20484;-77
2022/03/21 10:29:55;;;;;;;13.90;8.63;;;17.30;11.90;;;;;;5059844;28;20449;-77
2022/03/21 10:32:35;;;;;;;12.87;8.77;;;17.30;11.40;;;;;;5059076;28;20448;-79
2022/03/21 10:35:07;;;;;;;14.03;8.93;;;17.20;10.90;;;;;;5057748;28;20458;-79
2022/03/21 10:37:50;;;;;;;11.73;8.37;;;17.20;11.70;;;;;;5054362;28;20906;-77
2022/03/21 10:40:28;;;;;;;12.53;7.87;;;17.20;11.80;;;;;;5058871;28;20980;-77
2022/03/21 10:42:59;;;;;;;13.40;8.43;;;17.30;11.10;;;;;;5061423;28;20451;-76
2022/03/21 10:45:42;;;;;;;14.73;9.10;;;17.20;11.40;;;;;;5055263;28;20454;-77
2022/03/21 10:48:13;;;;;;;11.30;8.20;;;17.30;10.40;;;;;;5057032;28;20490;-78
2022/03/21 10:50:42;;;;;;;11.97;9.10;;;17.40;10.50;;;;;;5061335;28;20951;-77
2022/03/21 10:53:13;;;;;;;10.77;8.37;;;17.40;11.60;;;;;;5061123;28;20454;-77
2022/03/21 10:55:44;;;;;;;11.43;8.77;;;17.50;11.80;;;;;;5057611;28;20460;-77
2022/03/21 10:58:13;;;;;;;11.60;8.50;;;17.60;12.40;;;;;;5077716;28;20530;-78
2022/03/21 11:00:43;;;;;;;13.50;9.23;;;17.70;13.80;;;;;;5052353;28;20457;-80
2022/03/21 11:03:15;;;;;;;11.03;8.93;;;17.70;15.20;;;;;;5061995;28;20457;-77
2022/03/21 11:05:46;;;;;;;14.60;9.40;;;17.80;13.50;;;;;;5057189;28;20442;-77
2022/03/21 11:08:16;;;;;;;11.77;8.53;;;17.70;12.80;;;;;;5060537;28;20474;-77
2022/03/21 11:10:45;;;;;;;11.67;9.53;;;17.70;14.70;;;;;;5058552;28;20469;-77
2022/03/21 11:13:14;;;;;;;11.70;9.63;;;17.90;15.80;;;;;;5053846;28;20462;-79
2022/03/21 11:15:44;;;;;;;11.53;8.57;;;17.90;15.40;;;;;;5054247;28;20481;-77
2022/03/21 11:18:12;;;;;;;13.10;9.80;;;18.10;17.60;;;;;;5059637;28;20556;-77
2022/03/21 11:20:42;;;;;;;11.77;8.90;;;18.20;16.80;;;;;;5055252;28;20458;-78
2022/03/21 11:23:10;;;;;;;10.67;8.17;;;18.10;16.40;;;;;;5059166;28;20951;-78
2022/03/21 11:25:41;;;;;;;12.93;9.43;;;18.20;17.50;;;;;;5056668;28;20467;-77
2022/03/21 11:28:48;;;;;;;11.80;8.43;;;18.10;15.90;;;;;;5061223;28;20525;-77
2022/03/21 11:31:27;;;;;;;10.60;8.30;;;18.10;15.80;;;;;;5051383;28;20486;-77
2022/03/21 11:34:08;;;;;;;9.73;7.87;;;18.10;15.80;;;;;;5056984;28;20533;-78
2022/03/21 11:36:50;;;;;;;10.40;7.87;;;18.20;16.40;;;;;;5060199;28;20520;-76
2022/03/21 11:39:19;;;;;;;9.40;7.90;;;18.30;16.80;;;;;;5055406;28;20459;-77
2022/03/21 11:42:02;;;;;;;14.90;9.70;;;18.20;15.70;;;;;;5058456;28;20486;-78
2022/03/21 11:44:30;;;;;;;11.67;8.70;;;18.10;14.10;;;;;;5058081;28;20841;-77
2022/03/21 11:47:26;;;;;;;11.70;7.73;;;18.10;15.10;;;;;;5062408;28;20474;-77
2022/03/21 11:49:55;;;;;;;9.33;7.50;;;18.30;16.00;;;;;;5057096;28;20457;-78
2022/03/21 11:52:23;;;;;;;10.23;8.07;;;18.40;19.20;;;;;;5065379;28;20454;-77
2022/03/21 11:54:53;;;;;;;11.70;8.00;;;18.50;20.00;;;;;;5056161;28;21181;-78
2022/03/21 11:57:31;;;;;;;12.70;8.43;;;18.60;21.60;;;;;;5062443;28;20474;-79
2022/03/21 12:00:01;;;;;;;8.93;7.00;;;18.60;21.60;;;;;;5059944;28;20455;-78
2022/03/21 12:03:04;;;;;;;11.37;9.10;;;18.70;20.10;;;;;;5057859;28;20451;-77
2022/03/21 12:05:54;;;;;;;10.50;7.47;;;18.70;20.10;;;;;;5057075;28;20462;-78
2022/03/21 12:08:52;;;;;;;14.97;8.50;;;18.80;19.90;;;;;;5058815;28;20972;-78
2022/03/21 12:12:03;;;;;;;7.80;6.97;;;18.70;20.40;;;;;;5062292;28;20485;-77
2022/03/21 12:14:45;;;;;;;8.20;6.50;;;18.80;20.80;;;;;;5056031;28;20450;-79
2022/03/21 12:17:38;;;;;;;12.43;7.47;;;18.80;20.30;;;;;;5063368;28;20471;-77
2022/03/21 12:20:12;;;;;;;12.83;7.03;;;18.80;22.10;;;;;;5058983;28;20458;-79
2022/03/21 12:23:19;;;;;;;12.60;7.70;;;18.80;21.20;;;;;;5057071;28;20534;-76
2022/03/21 12:25:50;;;;;;;11.30;7.20;;;18.90;22.10;;;;;;5055188;28;20462;-79
2022/03/21 12:28:21;;;;;;;11.60;7.33;;;18.90;21.80;;;;;;5051400;28;20873;-78
2022/03/21 12:30:49;;;;;;;11.20;8.07;;;19.00;23.10;;;;;;5060279;28;20552;-78
2022/03/21 12:33:28;;;;;;;9.30;7.20;;;19.10;24.50;;;;;;5062311;28;20462;-78
2022/03/21 12:36:04;;;;;;;12.20;7.50;;;19.10;22.40;;;;;;5064558;28;21183;-78
2022/03/21 12:38:39;;;;;;;9.60;7.40;;;19.00;22.20;;;;;;5057903;28;21438;-77
2022/03/21 12:41:10;;;;;;;13.67;8.43;;;19.00;20.70;;;;;;5056380;28;20446;-78
2022/03/21 12:43:48;;;;;;;10.03;8.33;;;19.10;21.40;;;;;;5060975;28;21363;-78
2022/03/21 12:46:18;;;;;;;11.23;8.00;;;19.10;21.60;;;;;;5056555;28;20513;-77
2022/03/21 12:48:49;;;;;;;9.83;8.83;;;19.20;23.10;;;;;;5061490;28;20480;-78
2022/03/21 12:51:29;;;;;;;11.90;8.60;;;19.30;23.10;;;;;;5061548;28;20459;-78
2022/03/21 12:54:18;;;;;;;11.20;8.50;;;19.40;23.60;;;;;;5062425;28;20538;-79
2022/03/21 12:56:47;;;;;;;11.73;8.53;;;19.40;23.30;;;;;;5059012;28;20467;-78
2022/03/21 12:59:21;;;;;;;10.87;7.63;;;19.40;23.80;;;;;;5059169;28;20455;-78
2022/03/21 13:01:50;;;;;;;11.80;7.90;;;19.40;24.40;;;;;;5053610;28;20448;-77
2022/03/21 13:12:39;;;;;;;14.57;9.53;;;19.20;18.40;;;;;;5059325;28;21236;-77
2022/03/21 13:15:09;;;;;;;12.27;9.57;;;19.20;18.50;;;;;;5060985;28;20454;-78
2022/03/21 13:17:54;;;;;;;13.17;8.50;;;19.30;30.00;;;;;;5060009;28;20485;-78
2022/03/21 13:20:26;;;;;;;11.13;8.87;;;19.30;19.50;;;;;;5060689;28;20451;-78
2022/03/21 13:22:56;;;;;;;14.07;9.07;;;19.30;20.10;;;;;;5052700;28;20481;-78
2022/03/21 13:25:28;;;;;;;16.10;8.30;;;19.40;21.60;;;;;;5057068;28;20463;-78
2022/03/21 13:28:10;;;;;;;11.10;8.10;;;19.50;21.40;;;;;;5059196;28;21389;-78
2022/03/21 13:30:52;;;;;;;10.67;8.23;;;19.50;20.60;;;;;;5059793;28;20450;-77
2022/03/21 13:33:22;;;;;;;12.90;8.10;;;19.40;20.50;;;;;;5062107;28;20832;-76
2022/03/21 13:35:54;;;;;;;12.77;8.73;;;19.40;20.40;;;;;;5055063;28;20477;-78
2022/03/21 13:38:24;;;;;;;10.97;8.53;;;19.50;20.50;;;;;;5055090;28;21023;-79